sensor_id;sensor_type;location;lat;lon;timestamp;pressure;altitude;pressure_sealevel;temperature;humidity
76973;BME280;65907;53.640;10.050;2023-08-31T00:01:35;100028.66;;;25.27;43.73
76973;BME280;65907;53.640;10.050;2023-08-31T00:04:03;100028.22;;;25.15;43.93
76973;BME280;65907;53.640;10.050;2023-08-31T00:06:29;100031.00;;;25.14;43.84
76973;BME280;65907;53.640;10.050;2023-08-31T00:08:54;100033.13;;;25.18;43.97
76973;BME280;65907;53.640;10.050;2023-08-31T00:11:19;100034.97;;;25.10;44.02
76973;BME280;65907;53.640;10.050;2023-08-31T00:13:45;100031.16;;;25.20;43.76
76973;BME280;65907;53.640;10.050;2023-08-31T00:16:10;100030.34;;;25.20;43.75
76973;BME280;65907;53.640;10.050;2023-08-31T00:18:37;100032.34;;;25.18;43.73
76973;BME280;65907;53.640;10.050;2023-08-31T00:21:02;100026.19;;;25.26;43.68
76973;BME280;65907;53.640;10.050;2023-08-31T00:23:28;100021.97;;;25.16;43.83
76973;BME280;65907;53.640;10.050;2023-08-31T00:25:53;100027.56;;;25.13;43.91
76973;BME280;65907;53.640;10.050;2023-08-31T00:28:19;100028.09;;;25.09;43.92
76973;BME280;65907;53.640;10.050;2023-08-31T00:30:44;100029.69;;;25.18;43.71
76973;BME280;65907;53.640;10.050;2023-08-31T00:33:10;100022.16;;;25.15;43.85
76973;BME280;65907;53.640;10.050;2023-08-31T00:35:36;100021.47;;;25.13;43.96
76973;BME280;65907;53.640;10.050;2023-08-31T00:38:01;100022.81;;;25.17;43.58
76973;BME280;65907;53.640;10.050;2023-08-31T00:40:29;100023.47;;;25.11;43.74
76973;BME280;65907;53.640;10.050;2023-08-31T00:42:58;100038.25;;;25.20;43.78
76973;BME280;65907;53.640;10.050;2023-08-31T00:45:24;100033.47;;;25.15;43.81
76973;BME280;65907;53.640;10.050;2023-08-31T00:47:49;100030.84;;;25.15;43.66
76973;BME280;65907;53.640;10.050;2023-08-31T00:50:15;100035.91;;;25.25;43.39
76973;BME280;65907;53.640;10.050;2023-08-31T00:52:40;100033.66;;;25.14;43.78
76973;BME280;65907;53.640;10.050;2023-08-31T00:55:06;100043.88;;;25.09;43.95
76973;BME280;65907;53.640;10.050;2023-08-31T00:57:31;100033.22;;;25.02;44.17
76973;BME280;65907;53.640;10.050;2023-08-31T00:59:57;100031.69;;;25.16;43.69
76973;BME280;65907;53.640;10.050;2023-08-31T01:02:23;100033.44;;;25.24;43.63
76973;BME280;65907;53.640;10.050;2023-08-31T01:15:14;100031.72;;;25.08;43.94
76973;BME280;65907;53.640;10.050;2023-08-31T01:17:44;100029.50;;;25.19;43.56
76973;BME280;65907;53.640;10.050;2023-08-31T01:20:11;100034.97;;;25.10;43.66
76973;BME280;65907;53.640;10.050;2023-08-31T01:22:51;100031.78;;;25.23;43.53
76973;BME280;65907;53.640;10.050;2023-08-31T01:25:16;100032.97;;;25.20;43.33
76973;BME280;65907;53.640;10.050;2023-08-31T01:27:42;100032.34;;;25.18;43.63
76973;BME280;65907;53.640;10.050;2023-08-31T01:30:08;100034.97;;;25.18;43.49
76973;BME280;65907;53.640;10.050;2023-08-31T01:32:33;100038.59;;;25.17;43.57
76973;BME280;65907;53.640;10.050;2023-08-31T01:34:59;100044.31;;;25.20;43.56
76973;BME280;65907;53.640;10.050;2023-08-31T01:37:31;100042.31;;;25.23;43.31
76973;BME280;65907;53.640;10.050;2023-08-31T01:40:01;100045.84;;;25.15;43.64
76973;BME280;65907;53.640;10.050;2023-08-31T01:42:29;100039.25;;;25.11;43.61
76973;BME280;65907;53.640;10.050;2023-08-31T01:44:56;100051.91;;;25.15;43.38
76973;BME280;65907;53.640;10.050;2023-08-31T01:47:22;100055.53;;;25.14;43.75
76973;BME280;65907;53.640;10.050;2023-08-31T01:49:47;100054.38;;;25.17;43.44
76973;BME280;65907;53.640;10.050;2023-08-31T01:52:13;100062.44;;;25.15;43.45
76973;BME280;65907;53.640;10.050;2023-08-31T01:54:38;100068.53;;;25.16;43.38
76973;BME280;65907;53.640;10.050;2023-08-31T01:57:03;100065.56;;;25.11;43.41
76973;BME280;65907;53.640;10.050;2023-08-31T01:59:29;100064.28;;;25.06;43.61
76973;BME280;65907;53.640;10.050;2023-08-31T02:01:56;100072.31;;;25.13;43.50
76973;BME280;65907;53.640;10.050;2023-08-31T02:04:23;100068.53;;;25.16;43.57
76973;BME280;65907;53.640;10.050;2023-08-31T02:06:48;100072.03;;;25.00;43.60
76973;BME280;65907;53.640;10.050;2023-08-31T02:09:13;100078.38;;;25.14;43.51
76973;BME280;65907;53.640;10.050;2023-08-31T02:11:39;100071.09;;;25.24;43.33
76973;BME280;65907;53.640;10.050;2023-08-31T02:14:07;100074.53;;;25.25;43.29
76973;BME280;65907;53.640;10.050;2023-08-31T02:16:32;100073.38;;;25.27;43.35
76973;BME280;65907;53.640;10.050;2023-08-31T02:18:58;100077.06;;;25.18;43.26
76973;BME280;65907;53.640;10.050;2023-08-31T02:21:23;100072.09;;;25.23;43.24
76973;BME280;65907;53.640;10.050;2023-08-31T02:23:48;100070.63;;;25.20;43.26
76973;BME280;65907;53.640;10.050;2023-08-31T02:26:14;100075.72;;;25.14;43.35
76973;BME280;65907;53.640;10.050;2023-08-31T02:28:39;100073.09;;;25.14;43.56
76973;BME280;65907;53.640;10.050;2023-08-31T02:31:04;100081.31;;;25.19;43.24
76973;BME280;65907;53.640;10.050;2023-08-31T02:33:29;100075.09;;;25.12;43.63
76973;BME280;65907;53.640;10.050;2023-08-31T02:35:55;100084.97;;;25.10;43.46
76973;BME280;65907;53.640;10.050;2023-08-31T02:38:23;100084.97;;;25.10;43.58
76973;BME280;65907;53.640;10.050;2023-08-31T02:40:48;100089.88;;;25.13;43.46
76973;BME280;65907;53.640;10.050;2023-08-31T02:43:14;100089.22;;;25.11;43.67
76973;BME280;65907;53.640;10.050;2023-08-31T02:45:39;100088.56;;;25.17;43.29
76973;BME280;65907;53.640;10.050;2023-08-31T02:48:07;100086.59;;;25.19;43.26
76973;BME280;65907;53.640;10.050;2023-08-31T02:50:34;100086.75;;;25.17;43.15
76973;BME280;65907;53.640;10.050;2023-08-31T02:52:59;100088.44;;;25.10;43.45
76973;BME280;65907;53.640;10.050;2023-08-31T02:55:26;100094.16;;;25.14;43.35
76973;BME280;65907;53.640;10.050;2023-08-31T02:57:52;100084.31;;;25.16;43.37
76973;BME280;65907;53.640;10.050;2023-08-31T03:00:20;100082.34;;;25.10;43.35
76973;BME280;65907;53.640;10.050;2023-08-31T03:02:48;100087.59;;;25.10;43.52
76973;BME280;65907;53.640;10.050;2023-08-31T03:05:19;100079.59;;;25.03;43.52
76973;BME280;65907;53.640;10.050;2023-08-31T03:07:46;100074.66;;;25.00;43.64
76973;BME280;65907;53.640;10.050;2023-08-31T03:10:11;100074.78;;;25.06;43.47
76973;BME280;65907;53.640;10.050;2023-08-31T03:12:37;100070.72;;;25.04;43.50
76973;BME280;65907;53.640;10.050;2023-08-31T03:15:02;100074.44;;;25.10;43.21
76973;BME280;65907;53.640;10.050;2023-08-31T03:17:27;100078.38;;;25.14;43.34
76973;BME280;65907;53.640;10.050;2023-08-31T03:19:53;100072.16;;;25.06;43.41
76973;BME280;65907;53.640;10.050;2023-08-31T03:22:18;100075.97;;;25.04;43.54
76973;BME280;65907;53.640;10.050;2023-08-31T03:24:46;100073.28;;;25.12;43.21
76973;BME280;65907;53.640;10.050;2023-08-31T03:27:11;100074.28;;;25.11;43.37
76973;BME280;65907;53.640;10.050;2023-08-31T03:29:36;100077.59;;;25.05;43.26
76973;BME280;65907;53.640;10.050;2023-08-31T03:32:02;100073.63;;;25.09;43.41
76973;BME280;65907;53.640;10.050;2023-08-31T03:34:30;100069.66;;;25.13;43.21
76973;BME280;65907;53.640;10.050;2023-08-31T03:36:58;100074.50;;;25.01;43.12
76973;BME280;65907;53.640;10.050;2023-08-31T03:39:24;100076.13;;;25.02;43.46
76973;BME280;65907;53.640;10.050;2023-08-31T03:41:49;100081.38;;;25.02;43.44
76973;BME280;65907;53.640;10.050;2023-08-31T03:44:15;100078.63;;;24.96;43.41
76973;BME280;65907;53.640;10.050;2023-08-31T03:46:40;100081.34;;;25.11;43.00
76973;BME280;65907;53.640;10.050;2023-08-31T03:49:05;100081.53;;;25.01;43.24
76973;BME280;65907;53.640;10.050;2023-08-31T03:51:30;100091.22;;;25.09;43.27
76973;BME280;65907;53.640;10.050;2023-08-31T03:53:55;100092.25;;;24.99;43.37
76973;BME280;65907;53.640;10.050;2023-08-31T03:56:22;100091.75;;;25.04;43.26
76973;BME280;65907;53.640;10.050;2023-08-31T03:58:47;100091.97;;;24.86;43.63
76973;BME280;65907;53.640;10.050;2023-08-31T04:01:13;100093.72;;;25.02;43.47
76973;BME280;65907;53.640;10.050;2023-08-31T04:03:39;100090.56;;;25.06;43.44
76973;BME280;65907;53.640;10.050;2023-08-31T04:06:04;100095.22;;;24.96;43.61
76973;BME280;65907;53.640;10.050;2023-08-31T04:08:30;100098.97;;;25.02;43.40
76973;BME280;65907;53.640;10.050;2023-08-31T04:10:55;100095.69;;;25.08;43.27
76973;BME280;65907;53.640;10.050;2023-08-31T04:13:20;100100.09;;;25.08;43.20
76973;BME280;65907;53.640;10.050;2023-08-31T04:15:46;100106.66;;;25.12;43.10
76973;BME280;65907;53.640;10.050;2023-08-31T04:18:11;100107.00;;;25.09;43.27
76973;BME280;65907;53.640;10.050;2023-08-31T04:20:36;100109.50;;;25.02;43.38
76973;BME280;65907;53.640;10.050;2023-08-31T04:23:01;100122.63;;;25.10;43.12
76973;BME280;65907;53.640;10.050;2023-08-31T04:25:28;100118.88;;;25.04;43.32
76973;BME280;65907;53.640;10.050;2023-08-31T04:27:53;100128.72;;;25.02;43.18
76973;BME280;65907;53.640;10.050;2023-08-31T04:30:19;100129.22;;;24.98;43.34
76973;BME280;65907;53.640;10.050;2023-08-31T04:32:44;100133.34;;;25.00;43.41
76973;BME280;65907;53.640;10.050;2023-08-31T04:35:16;100134.50;;;24.98;43.41
76973;BME280;65907;53.640;10.050;2023-08-31T04:37:42;100135.97;;;25.00;43.27
76973;BME280;65907;53.640;10.050;2023-08-31T04:40:07;100131.72;;;24.91;43.39
76973;BME280;65907;53.640;10.050;2023-08-31T04:42:33;100127.59;;;24.97;43.31
76973;BME280;65907;53.640;10.050;2023-08-31T04:45:01;100127.59;;;24.97;43.33
76973;BME280;65907;53.640;10.050;2023-08-31T04:47:27;100135.34;;;24.90;43.47
76973;BME280;65907;53.640;10.050;2023-08-31T04:49:52;100134.19;;;24.92;43.26
76973;BME280;65907;53.640;10.050;2023-08-31T04:52:17;100138.47;;;24.94;43.51
76973;BME280;65907;53.640;10.050;2023-08-31T04:54:42;100136.63;;;25.02;43.24
76973;BME280;65907;53.640;10.050;2023-08-31T04:57:12;100131.22;;;25.04;43.16
76973;BME280;65907;53.640;10.050;2023-08-31T05:00:11;100134.84;;;25.03;42.88
76973;BME280;65907;53.640;10.050;2023-08-31T05:02:32;100134.34;;;24.99;43.22
76973;BME280;65907;53.640;10.050;2023-08-31T05:04:57;100133.00;;;25.03;43.16
76973;BME280;65907;53.640;10.050;2023-08-31T05:07:22;100135.31;;;24.98;43.34
76973;BME280;65907;53.640;10.050;2023-08-31T05:09:48;100138.47;;;24.94;43.42
76973;BME280;65907;53.640;10.050;2023-08-31T05:12:15;100145.31;;;25.11;42.88
76973;BME280;65907;53.640;10.050;2023-08-31T05:14:40;100147.50;;;24.99;43.17
76973;BME280;65907;53.640;10.050;2023-08-31T05:17:06;100150.44;;;25.04;42.94
76973;BME280;65907;53.640;10.050;2023-08-31T05:19:31;100149.13;;;25.00;43.28
76973;BME280;65907;53.640;10.050;2023-08-31T05:21:59;100160.97;;;24.96;43.26
76973;BME280;65907;53.640;10.050;2023-08-31T05:24:24;100154.88;;;25.04;43.13
76973;BME280;65907;53.640;10.050;2023-08-31T05:26:52;100162.44;;;24.99;42.95
76973;BME280;65907;53.640;10.050;2023-08-31T05:29:17;100163.41;;;25.06;43.10
76973;BME280;65907;53.640;10.050;2023-08-31T05:31:42;100166.88;;;24.98;43.37
76973;BME280;65907;53.640;10.050;2023-08-31T05:34:09;100165.72;;;25.09;42.96
76973;BME280;65907;53.640;10.050;2023-08-31T05:36:37;100172.31;;;24.97;43.36
76973;BME280;65907;53.640;10.050;2023-08-31T05:39:02;100169.03;;;25.03;43.32
76973;BME280;65907;53.640;10.050;2023-08-31T05:41:28;100163.88;;;25.10;43.00
76973;BME280;65907;53.640;10.050;2023-08-31T05:43:53;100158.63;;;25.10;42.88
76973;BME280;65907;53.640;10.050;2023-08-31T05:46:18;100163.38;;;25.14;42.64
76973;BME280;65907;53.640;10.050;2023-08-31T05:48:46;100166.31;;;25.19;42.69
76973;BME280;65907;53.640;10.050;2023-08-31T05:51:11;100172.75;;;25.17;42.90
76973;BME280;65907;53.640;10.050;2023-08-31T05:53:39;100174.06;;;25.21;42.61
76973;BME280;65907;53.640;10.050;2023-08-31T05:56:04;100171.59;;;25.19;42.61
76973;BME280;65907;53.640;10.050;2023-08-31T05:58:33;100172.41;;;25.20;42.75
76973;BME280;65907;53.640;10.050;2023-08-31T06:00:59;100176.69;;;25.21;42.57
76973;BME280;65907;53.640;10.050;2023-08-31T06:03:24;100179.28;;;25.29;42.40
76973;BME280;65907;53.640;10.050;2023-08-31T06:05:49;100178.78;;;25.26;42.49
76973;BME280;65907;53.640;10.050;2023-08-31T06:08:15;100184.25;;;25.24;42.47
76973;BME280;65907;53.640;10.050;2023-08-31T06:10:40;100188.66;;;25.24;42.48
76973;BME280;65907;53.640;10.050;2023-08-31T06:13:05;100188.84;;;25.22;42.53
76973;BME280;65907;53.640;10.050;2023-08-31T06:15:31;100181.13;;;25.20;42.42
76973;BME280;65907;53.640;10.050;2023-08-31T06:17:56;100182.28;;;25.10;42.77
76973;BME280;65907;53.640;10.050;2023-08-31T06:20:24;100194.47;;;25.11;42.78
76973;BME280;65907;53.640;10.050;2023-08-31T06:22:49;100197.78;;;25.04;43.05
76973;BME280;65907;53.640;10.050;2023-08-31T06:25:14;100195.59;;;25.16;42.85
76973;BME280;65907;53.640;10.050;2023-08-31T06:27:43;100191.94;;;25.26;42.70
76973;BME280;65907;53.640;10.050;2023-08-31T06:30:08;100196.28;;;25.10;43.00
76973;BME280;65907;53.640;10.050;2023-08-31T06:32:37;100191.63;;;25.20;42.90
76973;BME280;65907;53.640;10.050;2023-08-31T06:35:02;100197.75;;;25.13;42.98
76973;BME280;65907;53.640;10.050;2023-08-31T06:37:27;100191.72;;;25.04;43.14
76973;BME280;65907;53.640;10.050;2023-08-31T06:39:52;100194.16;;;25.05;43.13
76973;BME280;65907;53.640;10.050;2023-08-31T06:42:17;100197.78;;;25.04;42.92
76973;BME280;65907;53.640;10.050;2023-08-31T06:44:45;100199.41;;;25.05;43.16
76973;BME280;65907;53.640;10.050;2023-08-31T06:47:11;100194.50;;;25.02;43.28
76973;BME280;65907;53.640;10.050;2023-08-31T06:49:36;100192.69;;;24.95;43.31
76973;BME280;65907;53.640;10.050;2023-08-31T06:52:01;100188.28;;;24.95;43.35
76973;BME280;65907;53.640;10.050;2023-08-31T06:54:28;100199.59;;;24.96;43.44
76973;BME280;65907;53.640;10.050;2023-08-31T06:56:55;100189.88;;;25.04;43.03
76973;BME280;65907;53.640;10.050;2023-08-31T06:59:20;100198.09;;;25.01;43.41
76973;BME280;65907;53.640;10.050;2023-08-31T07:01:46;100202.88;;;25.06;43.33
76973;BME280;65907;53.640;10.050;2023-08-31T07:04:11;100199.84;;;25.26;42.87
76973;BME280;65907;53.640;10.050;2023-08-31T07:06:36;100202.28;;;25.35;42.60
76973;BME280;65907;53.640;10.050;2023-08-31T07:09:02;100202.91;;;25.46;42.48
76973;BME280;65907;53.640;10.050;2023-08-31T07:11:28;100205.88;;;25.43;42.36
76973;BME280;65907;53.640;10.050;2023-08-31T07:13:53;100203.38;;;25.58;42.21
76973;BME280;65907;53.640;10.050;2023-08-31T07:16:18;100210.78;;;25.62;42.14
76973;BME280;65907;53.640;10.050;2023-08-31T07:18:46;100210.28;;;25.59;42.21
76973;BME280;65907;53.640;10.050;2023-08-31T07:21:13;100211.44;;;25.56;42.10
76973;BME280;65907;53.640;10.050;2023-08-31T07:23:39;100209.44;;;25.58;42.12
76973;BME280;65907;53.640;10.050;2023-08-31T07:26:04;100213.28;;;25.39;42.57
76973;BME280;65907;53.640;10.050;2023-08-31T07:28:30;100208.34;;;25.53;42.25
76973;BME280;65907;53.640;10.050;2023-08-31T07:31:05;100215.41;;;25.52;42.16
76973;BME280;65907;53.640;10.050;2023-08-31T07:33:34;100211.09;;;25.59;42.07
76973;BME280;65907;53.640;10.050;2023-08-31T07:36:00;100207.44;;;25.69;42.01
76973;BME280;65907;53.640;10.050;2023-08-31T07:38:26;100214.69;;;25.67;42.14
76973;BME280;65907;53.640;10.050;2023-08-31T07:40:54;100215.69;;;25.66;42.05
76973;BME280;65907;53.640;10.050;2023-08-31T07:43:19;100214.00;;;25.73;41.91
76973;BME280;65907;53.640;10.050;2023-08-31T07:45:44;100210.56;;;25.72;42.04
76973;BME280;65907;53.640;10.050;2023-08-31T07:48:10;100211.63;;;25.86;41.80
76973;BME280;65907;53.640;10.050;2023-08-31T07:50:35;100210.56;;;25.72;41.94
76973;BME280;65907;53.640;10.050;2023-08-31T07:53:00;100219.34;;;25.88;41.84
76973;BME280;65907;53.640;10.050;2023-08-31T07:55:25;100223.81;;;25.87;41.61
76973;BME280;65907;53.640;10.050;2023-08-31T07:57:53;100225.03;;;25.76;42.12
76973;BME280;65907;53.640;10.050;2023-08-31T08:00:18;100230.50;;;25.58;42.51
76973;BME280;65907;53.640;10.050;2023-08-31T08:02:46;100238.84;;;25.70;42.06
76973;BME280;65907;53.640;10.050;2023-08-31T08:05:11;100239.41;;;25.57;42.41
76973;BME280;65907;53.640;10.050;2023-08-31T08:07:39;100238.91;;;25.62;42.22
76973;BME280;65907;53.640;10.050;2023-08-31T08:10:07;100232.63;;;25.63;42.24
76973;BME280;65907;53.640;10.050;2023-08-31T08:12:39;100249.28;;;25.63;42.23
76973;BME280;65907;53.640;10.050;2023-08-31T08:15:05;100245.81;;;25.63;41.93
76973;BME280;65907;53.640;10.050;2023-08-31T08:17:30;100249.09;;;25.65;42.02
76973;BME280;65907;53.640;10.050;2023-08-31T08:19:55;100257.19;;;25.55;42.22
76973;BME280;65907;53.640;10.050;2023-08-31T08:22:20;100251.97;;;25.47;42.57
76973;BME280;65907;53.640;10.050;2023-08-31T08:24:46;100258.53;;;25.43;42.53
76973;BME280;65907;53.640;10.050;2023-08-31T08:27:11;100271.00;;;25.57;42.20
76973;BME280;65907;53.640;10.050;2023-08-31T08:29:36;100257.31;;;25.62;42.21
76973;BME280;65907;53.640;10.050;2023-08-31T08:32:01;100259.47;;;25.67;42.08
76973;BME280;65907;53.640;10.050;2023-08-31T08:34:28;100268.88;;;25.53;42.46
76973;BME280;65907;53.640;10.050;2023-08-31T08:36:56;100263.44;;;25.62;42.17
76973;BME280;65907;53.640;10.050;2023-08-31T08:39:24;100265.91;;;25.56;42.36
76973;BME280;65907;53.640;10.050;2023-08-31T08:41:49;100255.53;;;25.62;42.33
76973;BME280;65907;53.640;10.050;2023-08-31T08:44:14;100248.28;;;25.65;42.13
76973;BME280;65907;53.640;10.050;2023-08-31T08:46:41;100253.84;;;25.70;41.83
76973;BME280;65907;53.640;10.050;2023-08-31T08:49:09;100260.25;;;25.67;42.21
76973;BME280;65907;53.640;10.050;2023-08-31T08:51:35;100248.75;;;25.68;42.01
76973;BME280;65907;53.640;10.050;2023-08-31T08:54:00;100251.06;;;25.63;42.12
76973;BME280;65907;53.640;10.050;2023-08-31T08:56:26;100250.72;;;25.74;41.93
76973;BME280;65907;53.640;10.050;2023-08-31T08:58:51;100253.88;;;25.61;42.15
76973;BME280;65907;53.640;10.050;2023-08-31T09:01:17;100254.53;;;25.63;42.09
76973;BME280;65907;53.640;10.050;2023-08-31T09:03:48;100266.41;;;25.43;42.45
76973;BME280;65907;53.640;10.050;2023-08-31T09:06:13;100258.69;;;25.41;42.52
76973;BME280;65907;53.640;10.050;2023-08-31T09:08:38;100253.41;;;25.41;42.69
76973;BME280;65907;53.640;10.050;2023-08-31T09:11:08;100258.47;;;25.59;42.22
76973;BME280;65907;53.640;10.050;2023-08-31T09:13:33;100253.56;;;25.56;42.24
76973;BME280;65907;53.640;10.050;2023-08-31T09:15:59;100244.34;;;25.60;42.37
76973;BME280;65907;53.640;10.050;2023-08-31T09:18:28;100246.00;;;25.61;42.15
76973;BME280;65907;53.640;10.050;2023-08-31T09:20:54;100247.16;;;25.59;42.14
76973;BME280;65907;53.640;10.050;2023-08-31T09:23:21;100235.97;;;25.57;42.23
76973;BME280;65907;53.640;10.050;2023-08-31T09:25:49;100253.22;;;25.59;42.17
76973;BME280;65907;53.640;10.050;2023-08-31T09:28:15;100244.34;;;25.60;42.14
76973;BME280;65907;53.640;10.050;2023-08-31T09:30:41;100255.34;;;25.64;42.07
76973;BME280;65907;53.640;10.050;2023-08-31T09:33:07;100248.94;;;25.58;42.32
76973;BME280;65907;53.640;10.050;2023-08-31T09:35:38;100250.16;;;25.31;42.64
76973;BME280;65907;53.640;10.050;2023-08-31T09:38:09;100246.69;;;25.47;42.31
76973;BME280;65907;53.640;10.050;2023-08-31T09:40:37;100240.06;;;25.59;42.21
76973;BME280;65907;53.640;10.050;2023-08-31T09:43:03;100237.09;;;25.62;41.97
76973;BME280;65907;53.640;10.050;2023-08-31T09:45:32;100245.19;;;25.44;42.26
76973;BME280;65907;53.640;10.050;2023-08-31T09:48:02;100237.59;;;25.58;42.12
76973;BME280;65907;53.640;10.050;2023-08-31T09:50:31;100247.44;;;25.64;41.97
76973;BME280;65907;53.640;10.050;2023-08-31T09:53:05;100246.69;;;25.47;42.38
76973;BME280;65907;53.640;10.050;2023-08-31T09:55:31;100257.06;;;25.32;42.72
76973;BME280;65907;53.640;10.050;2023-08-31T09:57:58;100247.19;;;25.51;42.21
76973;BME280;65907;53.640;10.050;2023-08-31T10:00:27;100250.28;;;25.54;42.14
76973;BME280;65907;53.640;10.050;2023-08-31T10:02:56;100249.69;;;25.11;42.74
76973;BME280;65907;53.640;10.050;2023-08-31T10:05:21;100247.38;;;25.24;42.94
76973;BME280;65907;53.640;10.050;2023-08-31T10:07:48;100262.66;;;25.37;42.61
76973;BME280;65907;53.640;10.050;2023-08-31T10:10:13;100240.91;;;25.43;42.41
76973;BME280;65907;53.640;10.050;2023-08-31T10:12:41;100239.00;;;25.29;42.53
76973;BME280;65907;53.640;10.050;2023-08-31T10:15:08;100242.44;;;25.38;42.72
76973;BME280;65907;53.640;10.050;2023-08-31T10:17:34;100253.06;;;25.44;41.91
76973;BME280;65907;53.640;10.050;2023-08-31T10:19:59;100251.28;;;25.53;42.17
76973;BME280;65907;53.640;10.050;2023-08-31T10:22:24;100240.16;;;25.26;42.60
76973;BME280;65907;53.640;10.050;2023-08-31T10:25:24;100245.09;;;25.13;43.18
76973;BME280;65907;53.640;10.050;2023-08-31T10:27:42;100247.72;;;25.21;43.08
76973;BME280;65907;53.640;10.050;2023-08-31T10:32:39;100249.66;;;25.35;42.43
76973;BME280;65907;53.640;10.050;2023-08-31T10:35:05;100248.34;;;25.48;42.37
76973;BME280;65907;53.640;10.050;2023-08-31T10:37:33;100257.19;;;25.55;42.00
76973;BME280;65907;53.640;10.050;2023-08-31T10:40:11;100259.00;;;25.46;42.20
76973;BME280;65907;53.640;10.050;2023-08-31T10:42:47;100257.53;;;25.44;42.56
76973;BME280;65907;53.640;10.050;2023-08-31T10:45:19;100258.56;;;25.26;42.92
76973;BME280;65907;53.640;10.050;2023-08-31T10:47:46;100260.34;;;25.34;42.62
76973;BME280;65907;53.640;10.050;2023-08-31T10:50:22;100265.31;;;25.20;42.69
76973;BME280;65907;53.640;10.050;2023-08-31T10:52:48;100270.75;;;25.11;43.07
76973;BME280;65907;53.640;10.050;2023-08-31T10:55:16;100265.13;;;25.39;42.61
76973;BME280;65907;53.640;10.050;2023-08-31T10:57:41;100264.06;;;24.83;43.67
76973;BME280;65907;53.640;10.050;2023-08-31T11:00:07;100254.59;;;25.30;42.63
76973;BME280;65907;53.640;10.050;2023-08-31T11:02:36;100261.53;;;25.23;42.82
76973;BME280;65907;53.640;10.050;2023-08-31T11:05:06;100264.44;;;25.45;42.23
76973;BME280;65907;53.640;10.050;2023-08-31T11:07:31;100259.09;;;25.13;42.86
76973;BME280;65907;53.640;10.050;2023-08-31T11:10:07;100260.06;;;25.12;42.73
76973;BME280;65907;53.640;10.050;2023-08-31T11:12:33;100255.63;;;25.21;42.95
76973;BME280;65907;53.640;10.050;2023-08-31T11:14:58;100247.25;;;25.09;42.74
76973;BME280;65907;53.640;10.050;2023-08-31T11:17:23;100243.16;;;24.82;43.16
76973;BME280;65907;53.640;10.050;2023-08-31T11:19:51;100257.44;;;25.12;42.99
76973;BME280;65907;53.640;10.050;2023-08-31T11:22:16;100259.88;;;25.14;43.03
76973;BME280;65907;53.640;10.050;2023-08-31T11:24:42;100246.44;;;25.00;43.16
76973;BME280;65907;53.640;10.050;2023-08-31T11:27:07;100249.19;;;25.24;42.45
76973;BME280;65907;53.640;10.050;2023-08-31T11:29:45;100259.22;;;25.28;42.64
76973;BME280;65907;53.640;10.050;2023-08-31T11:32:10;100250.38;;;24.88;43.30
76973;BME280;65907;53.640;10.050;2023-08-31T11:34:39;100257.13;;;25.07;43.01
76973;BME280;65907;53.640;10.050;2023-08-31T11:37:07;100248.41;;;25.15;42.64
76973;BME280;65907;53.640;10.050;2023-08-31T11:39:32;100254.28;;;25.25;42.59
76973;BME280;65907;53.640;10.050;2023-08-31T11:41:57;100253.66;;;25.15;42.74
76973;BME280;65907;53.640;10.050;2023-08-31T11:44:23;100257.25;;;25.22;42.62
76973;BME280;65907;53.640;10.050;2023-08-31T11:46:48;100257.59;;;25.11;42.88
76973;BME280;65907;53.640;10.050;2023-08-31T11:49:15;100256.09;;;25.25;42.72
76973;BME280;65907;53.640;10.050;2023-08-31T11:51:40;100252.84;;;25.06;42.87
76973;BME280;65907;53.640;10.050;2023-08-31T11:54:08;100253.25;;;25.34;42.49
76973;BME280;65907;53.640;10.050;2023-08-31T11:56:38;100252.97;;;25.29;42.33
76973;BME280;65907;53.640;10.050;2023-08-31T11:59:07;100249.06;;;25.17;42.70
76973;BME280;65907;53.640;10.050;2023-08-31T12:01:32;100238.34;;;25.27;42.59
76973;BME280;65907;53.640;10.050;2023-08-31T12:03:57;100244.63;;;25.01;42.89
76973;BME280;65907;53.640;10.050;2023-08-31T12:06:22;100242.66;;;25.03;42.77
76973;BME280;65907;53.640;10.050;2023-08-31T12:08:48;100245.25;;;25.19;42.66
76973;BME280;65907;53.640;10.050;2023-08-31T12:11:18;100247.59;;;24.89;43.01
76973;BME280;65907;53.640;10.050;2023-08-31T12:13:43;100244.13;;;25.05;42.80
76973;BME280;65907;53.640;10.050;2023-08-31T12:16:11;100245.47;;;25.01;42.71
76973;BME280;65907;53.640;10.050;2023-08-31T12:18:37;100244.09;;;25.14;42.60
76973;BME280;65907;53.640;10.050;2023-08-31T12:21:02;100243.16;;;24.90;43.24
76973;BME280;65907;53.640;10.050;2023-08-31T12:23:29;100250.53;;;25.11;42.73
76973;BME280;65907;53.640;10.050;2023-08-31T12:25:54;100246.75;;;25.05;42.86
76973;BME280;65907;53.640;10.050;2023-08-31T12:28:20;100241.66;;;25.12;42.72
76973;BME280;65907;53.640;10.050;2023-08-31T12:30:50;100252.00;;;25.14;42.66
76973;BME280;65907;53.640;10.050;2023-08-31T12:33:16;100252.97;;;25.13;42.67
76973;BME280;65907;53.640;10.050;2023-08-31T12:35:42;100246.75;;;25.05;42.73
76973;BME280;65907;53.640;10.050;2023-08-31T12:38:07;100242.81;;;25.10;42.68
76973;BME280;65907;53.640;10.050;2023-08-31T12:40:32;100251.84;;;25.15;42.86
76973;BME280;65907;53.640;10.050;2023-08-31T12:43:00;100265.03;;;24.90;43.17
76973;BME280;65907;53.640;10.050;2023-08-31T12:45:25;100258.44;;;24.95;43.13
76973;BME280;65907;53.640;10.050;2023-08-31T12:47:51;100264.84;;;25.09;42.61
76973;BME280;65907;53.640;10.050;2023-08-31T12:50:16;100272.09;;;24.98;42.90